Time;durP1;ratioP1;P1;durP2;ratioP2;P2;SDS_P1;SDS_P2;PMS_P1;PMS_P2;Temp;Humidity;BMP_temperature;BMP_pressure;BME280_temperature;BME280_humidity;BME280_pressure;Samples;Min_cycle;Max_cycle;Signal;HPM_P1;HPM_P2
2022/07/31 00:01:52;;;;;;;11.00;7.65;;;;;;;;;;1768268;80;21008;-73
2022/07/31 00:04:19;;;;;;;12.03;7.30;;;;;;;;;;1757169;80;21541;-73
2022/07/31 00:06:46;;;;;;;12.25;6.97;;;;;;;;;;1770686;80;21051;-73
2022/07/31 00:09:14;;;;;;;12.98;7.65;;;;;;;;;;1756662;80;21640;-73
2022/07/31 00:11:42;;;;;;;10.78;7.40;;;;;;;;;;1759942;80;21075;-73
2022/07/31 00:14:11;;;;;;;14.68;8.83;;;;;;;;;;1756914;80;21110;-74
2022/07/31 00:16:38;;;;;;;15.05;8.30;;;;;;;;;;1750780;80;21051;-73
2022/07/31 00:19:05;;;;;;;15.30;7.92;;;;;;;;;;1746550;80;21082;-73
2022/07/31 00:21:32;;;;;;;13.08;8.18;;;;;;;;;;1747145;80;21129;-73
2022/07/31 00:23:59;;;;;;;13.30;7.90;;;;;;;;;;1762402;80;21677;-73
2022/07/31 00:26:26;;;;;;;15.88;8.10;;;;;;;;;;1745066;80;21145;-73
2022/07/31 00:28:53;;;;;;;11.80;7.97;;;;;;;;;;1746518;80;21639;-73
2022/07/31 00:31:20;;;;;;;11.35;7.70;;;;;;;;;;1757215;80;21047;-73
2022/07/31 00:33:47;;;;;;;14.47;7.90;;;;;;;;;;1765915;80;21552;-73
2022/07/31 00:36:13;;;;;;;11.88;8.08;;;;;;;;;;1750327;80;21109;-74
2022/07/31 00:38:40;;;;;;;17.48;8.98;;;;;;;;;;1776072;80;21031;-73
2022/07/31 00:41:08;;;;;;;13.08;8.28;;;;;;;;;;1777091;80;21093;-73
2022/07/31 00:43:35;;;;;;;14.73;8.70;;;;;;;;;;1757600;80;21020;-73
2022/07/31 00:46:01;;;;;;;13.03;8.75;;;;;;;;;;1762172;80;21062;-73
2022/07/31 00:48:29;;;;;;;12.03;8.38;;;;;;;;;;1746391;81;21067;-73
2022/07/31 00:50:56;;;;;;;15.28;8.08;;;;;;;;;;1746396;80;21539;-74
2022/07/31 00:53:24;;;;;;;13.30;7.90;;;;;;;;;;1756874;80;21023;-73
2022/07/31 00:55:50;;;;;;;13.53;8.00;;;;;;;;;;1751715;80;21081;-73
2022/07/31 00:58:18;;;;;;;11.78;7.83;;;;;;;;;;1758510;80;21599;-73
2022/07/31 01:00:47;;;;;;;15.05;8.30;;;;;;;;;;1767085;80;21157;-73
2022/07/31 01:03:15;;;;;;;15.48;8.03;;;;;;;;;;1764948;80;21062;-74
2022/07/31 01:05:42;;;;;;;17.37;7.60;;;;;;;;;;1754506;80;21078;-73
2022/07/31 01:08:09;;;;;;;10.20;7.42;;;;;;;;;;1772033;80;21039;-74
2022/07/31 01:10:50;;;;;;;14.43;7.20;;;;;;;;;;1762048;80;21002;-73
2022/07/31 01:13:30;;;;;;;16.52;8.85;;;;;;;;;;1760222;80;21062;-73
2022/07/31 01:16:00;;;;;;;14.73;8.80;;;;;;;;;;1742725;80;21070;-73
2022/07/31 01:18:29;;;;;;;12.98;9.08;;;;;;;;;;1765620;80;21044;-73
2022/07/31 01:21:00;;;;;;;13.60;8.73;;;;;;;;;;1761147;80;20991;-73
2022/07/31 01:23:42;;;;;;;18.60;9.55;;;;;;;;;;1751912;80;21094;-73
2022/07/31 01:26:21;;;;;;;15.83;9.75;;;;;;;;;;1724903;80;21020;-73
2022/07/31 01:29:11;;;;;;;13.98;9.25;;;;;;;;;;1745787;80;21167;-73
2022/07/31 01:31:45;;;;;;;15.55;9.38;;;;;;;;;;1725724;82;21114;-74
2022/07/31 01:34:25;;;;;;;16.62;9.80;;;;;;;;;;1775691;80;21516;-74
2022/07/31 01:36:57;;;;;;;19.73;10.08;;;;;;;;;;1759782;80;21530;-74
2022/07/31 01:39:25;;;;;;;13.72;9.53;;;;;;;;;;1763774;80;21035;-74
2022/07/31 01:41:54;;;;;;;17.52;9.85;;;;;;;;;;1773881;81;21035;-74
2022/07/31 01:44:23;;;;;;;16.15;9.50;;;;;;;;;;1761156;80;21036;-73
2022/07/31 01:46:50;;;;;;;14.40;9.55;;;;;;;;;;1764347;80;21003;-74
2022/07/31 01:49:17;;;;;;;17.92;9.90;;;;;;;;;;1769572;80;21499;-74
2022/07/31 01:51:45;;;;;;;16.32;10.38;;;;;;;;;;1746062;81;21487;-75
2022/07/31 01:54:14;;;;;;;17.32;10.60;;;;;;;;;;1756318;80;21074;-74
2022/07/31 01:56:43;;;;;;;15.40;11.00;;;;;;;;;;1770682;80;21664;-74
2022/07/31 01:59:11;;;;;;;16.75;11.15;;;;;;;;;;1757766;80;21030;-74
2022/07/31 02:01:41;;;;;;;18.15;11.18;;;;;;;;;;1767591;80;21094;-74
2022/07/31 02:04:09;;;;;;;21.15;10.82;;;;;;;;;;1747850;80;21034;-74
2022/07/31 02:06:37;;;;;;;18.95;11.30;;;;;;;;;;1761924;80;22485;-74
2022/07/31 02:09:04;;;;;;;24.35;10.60;;;;;;;;;;1750049;80;21117;-74
2022/07/31 02:11:31;;;;;;;16.93;10.82;;;;;;;;;;1753727;80;21002;-74
2022/07/31 02:13:59;;;;;;;15.13;10.18;;;;;;;;;;1757107;80;21027;-74
2022/07/31 02:16:28;;;;;;;16.97;10.40;;;;;;;;;;1731611;80;21106;-74
2022/07/31 02:18:58;;;;;;;20.55;10.18;;;;;;;;;;1761060;80;21042;-73
2022/07/31 02:21:27;;;;;;;14.23;10.40;;;;;;;;;;1769828;80;21587;-74
2022/07/31 02:23:55;;;;;;;16.35;9.95;;;;;;;;;;1775722;80;21156;-73
2022/07/31 02:26:23;;;;;;;16.37;10.40;;;;;;;;;;1775679;81;21126;-73
2022/07/31 02:28:51;;;;;;;18.65;10.48;;;;;;;;;;1771688;80;21098;-73
2022/07/31 02:31:20;;;;;;;20.30;10.95;;;;;;;;;;1775675;80;21095;-73
2022/07/31 02:33:50;;;;;;;15.95;10.88;;;;;;;;;;1775747;81;21000;-73
2022/07/31 02:36:19;;;;;;;20.85;10.98;;;;;;;;;;1740368;81;21051;-73
2022/07/31 02:38:47;;;;;;;18.87;11.12;;;;;;;;;;1747402;80;21027;-73
2022/07/31 02:41:16;;;;;;;17.17;11.68;;;;;;;;;;1751705;80;21043;-73
2022/07/31 02:43:44;;;;;;;19.40;10.93;;;;;;;;;;1733422;80;21567;-73
2022/07/31 02:46:13;;;;;;;14.90;11.03;;;;;;;;;;1759477;80;21055;-73
2022/07/31 02:48:41;;;;;;;17.90;10.85;;;;;;;;;;1751084;80;21051;-72
2022/07/31 02:51:09;;;;;;;23.73;11.38;;;;;;;;;;1773394;80;21027;-73
2022/07/31 02:53:36;;;;;;;17.92;10.58;;;;;;;;;;1764294;80;21034;-72
2022/07/31 02:56:05;;;;;;;18.92;11.12;;;;;;;;;;1762322;80;21071;-73
2022/07/31 02:58:34;;;;;;;18.35;11.22;;;;;;;;;;1772043;80;21082;-73
2022/07/31 03:01:03;;;;;;;18.98;10.53;;;;;;;;;;1775290;80;21043;-73
2022/07/31 03:03:31;;;;;;;17.57;10.85;;;;;;;;;;1760005;80;21732;-72
2022/07/31 03:05:59;;;;;;;19.00;11.05;;;;;;;;;;1750095;80;21157;-72
2022/07/31 03:08:28;;;;;;;19.60;10.58;;;;;;;;;;1754748;80;21004;-73
2022/07/31 03:10:57;;;;;;;16.60;10.35;;;;;;;;;;1784730;80;21512;-72
2022/07/31 03:13:27;;;;;;;17.50;10.55;;;;;;;;;;1761689;80;21003;-72
2022/07/31 03:15:54;;;;;;;16.12;10.03;;;;;;;;;;1764111;80;21069;-72
2022/07/31 03:18:21;;;;;;;15.15;10.00;;;;;;;;;;1759301;80;21148;-71
2022/07/31 03:20:52;;;;;;;14.38;9.75;;;;;;;;;;1761226;80;21062;-72
2022/07/31 03:23:21;;;;;;;17.42;10.15;;;;;;;;;;1755069;80;21027;-71
2022/07/31 03:25:49;;;;;;;16.42;9.70;;;;;;;;;;1774038;80;21060;-71
2022/07/31 03:28:20;;;;;;;16.25;8.90;;;;;;;;;;1749224;80;21105;-72
2022/07/31 03:30:51;;;;;;;15.20;8.63;;;;;;;;;;1760380;80;21071;-71
2022/07/31 03:33:19;;;;;;;14.43;8.53;;;;;;;;;;1781850;80;21019;-72
2022/07/31 03:35:45;;;;;;;13.43;8.60;;;;;;;;;;1770503;80;21024;-72
2022/07/31 03:38:12;;;;;;;14.90;7.33;;;;;;;;;;1751909;80;21026;-72
2022/07/31 03:40:42;;;;;;;12.55;7.47;;;;;;;;;;1752762;80;21029;-72
2022/07/31 03:43:09;;;;;;;11.28;7.22;;;;;;;;;;1758698;80;21039;-71
2022/07/31 03:45:38;;;;;;;11.55;6.60;;;;;;;;;;1728833;80;21571;-72
2022/07/31 03:48:07;;;;;;;13.35;6.85;;;;;;;;;;1760138;80;21034;-71
2022/07/31 03:50:36;;;;;;;11.55;6.67;;;;;;;;;;1772700;80;21538;-72
2022/07/31 03:53:05;;;;;;;10.90;6.72;;;;;;;;;;1769467;80;21106;-72
2022/07/31 03:55:34;;;;;;;12.20;6.75;;;;;;;;;;1751903;80;21024;-71
2022/07/31 03:58:03;;;;;;;9.53;6.22;;;;;;;;;;1739286;80;21012;-72
2022/07/31 04:00:31;;;;;;;11.57;6.37;;;;;;;;;;1763383;80;21101;-71
2022/07/31 04:03:01;;;;;;;10.03;6.17;;;;;;;;;;1773815;80;21535;-71
2022/07/31 04:05:30;;;;;;;13.45;6.37;;;;;;;;;;1774507;80;21050;-71
2022/07/31 04:07:58;;;;;;;8.75;5.90;;;;;;;;;;1775702;80;21071;-71
2022/07/31 04:10:26;;;;;;;10.03;6.00;;;;;;;;;;1752983;80;21484;-71
2022/07/31 04:12:54;;;;;;;9.78;6.15;;;;;;;;;;1741901;80;21690;-71
2022/07/31 04:15:21;;;;;;;12.85;6.30;;;;;;;;;;1746932;80;21030;-72
2022/07/31 04:17:50;;;;;;;9.45;5.50;;;;;;;;;;1771148;80;21479;-71
2022/07/31 04:20:20;;;;;;;8.93;5.40;;;;;;;;;;1755031;80;21087;-71
2022/07/31 04:22:47;;;;;;;10.40;5.55;;;;;;;;;;1752065;80;21027;-71
2022/07/31 04:25:16;;;;;;;8.93;5.83;;;;;;;;;;1760409;80;21115;-72
2022/07/31 04:27:47;;;;;;;13.95;5.47;;;;;;;;;;1769108;80;20996;-73
2022/07/31 04:30:15;;;;;;;9.25;5.45;;;;;;;;;;1734727;82;21995;-72
2022/07/31 04:32:42;;;;;;;9.30;5.53;;;;;;;;;;1755447;80;21074;-71
2022/07/31 04:35:12;;;;;;;10.60;4.85;;;;;;;;;;1714361;82;21003;-71
2022/07/31 04:37:39;;;;;;;10.93;5.20;;;;;;;;;;1751577;80;21022;-71
2022/07/31 04:40:07;;;;;;;9.28;5.03;;;;;;;;;;1769623;80;21058;-72
2022/07/31 04:42:34;;;;;;;11.55;5.35;;;;;;;;;;1772934;80;21004;-73
2022/07/31 04:45:01;;;;;;;10.90;4.87;;;;;;;;;;1761068;80;21007;-74
2022/07/31 04:47:28;;;;;;;11.83;5.53;;;;;;;;;;1749436;80;21100;-72
2022/07/31 04:49:56;;;;;;;11.22;5.00;;;;;;;;;;1754722;80;21090;-71
2022/07/31 04:52:23;;;;;;;11.45;5.45;;;;;;;;;;1743917;80;21027;-72
2022/07/31 04:54:51;;;;;;;9.55;5.42;;;;;;;;;;1776977;80;21136;-73
2022/07/31 04:57:18;;;;;;;8.15;5.15;;;;;;;;;;1747354;80;20996;-73
2022/07/31 04:59:45;;;;;;;8.95;5.20;;;;;;;;;;1763642;80;21356;-73
2022/07/31 05:02:12;;;;;;;8.23;4.92;;;;;;;;;;1782729;80;21515;-72
2022/07/31 05:04:39;;;;;;;10.72;4.37;;;;;;;;;;1760790;80;21006;-72
2022/07/31 05:07:06;;;;;;;8.03;4.80;;;;;;;;;;1764356;80;21160;-72
2022/07/31 05:09:34;;;;;;;6.58;4.53;;;;;;;;;;1754267;80;21027;-73
2022/07/31 05:12:03;;;;;;;10.00;4.72;;;;;;;;;;1770579;80;21047;-73
2022/07/31 05:14:30;;;;;;;9.15;3.98;;;;;;;;;;1759112;80;21051;-72
2022/07/31 05:16:58;;;;;;;9.20;4.08;;;;;;;;;;1757543;80;21052;-73
2022/07/31 05:19:28;;;;;;;5.45;4.00;;;;;;;;;;1759603;81;21538;-72
2022/07/31 05:22:14;;;;;;;8.63;4.30;;;;;;;;;;1747490;80;21498;-72
2022/07/31 05:24:59;;;;;;;7.45;4.37;;;;;;;;;;1758498;80;21047;-73
2022/07/31 05:27:27;;;;;;;8.30;4.37;;;;;;;;;;1751199;80;21030;-72
2022/07/31 05:29:55;;;;;;;7.78;4.20;;;;;;;;;;1765168;80;21495;-72
2022/07/31 05:32:22;;;;;;;7.12;4.30;;;;;;;;;;1761687;80;21066;-71
2022/07/31 05:34:49;;;;;;;7.40;4.17;;;;;;;;;;1755819;80;21122;-72
2022/07/31 05:37:16;;;;;;;7.90;4.22;;;;;;;;;;1754169;80;21007;-72
2022/07/31 05:39:42;;;;;;;9.70;4.53;;;;;;;;;;1761236;80;21002;-72
2022/07/31 05:42:28;;;;;;;9.00;4.80;;;;;;;;;;1758234;80;21027;-72
2022/07/31 05:45:15;;;;;;;9.98;5.17;;;;;;;;;;1748917;80;21658;-72
2022/07/31 05:47:42;;;;;;;7.50;4.92;;;;;;;;;;1756974;80;21440;-72
2022/07/31 05:50:09;;;;;;;11.40;4.85;;;;;;;;;;1766595;80;21534;-72
2022/07/31 05:52:37;;;;;;;12.63;5.55;;;;;;;;;;1744802;80;21487;-73
2022/07/31 05:55:12;;;;;;;7.60;4.65;;;;;;;;;;1769222;80;21496;-72
2022/07/31 05:57:53;;;;;;;9.43;4.97;;;;;;;;;;1738038;80;21503;-73
2022/07/31 06:00:21;;;;;;;5.83;3.50;;;;;;;;;;1755799;80;21011;-73
2022/07/31 06:02:48;;;;;;;6.28;3.50;;;;;;;;;;1742253;80;21015;-72
2022/07/31 06:05:16;;;;;;;7.50;3.30;;;;;;;;;;1752352;80;21028;-73
2022/07/31 06:07:45;;;;;;;10.60;3.40;;;;;;;;;;1775806;80;21027;-73
2022/07/31 06:10:12;;;;;;;7.97;3.85;;;;;;;;;;1763179;80;21035;-73
2022/07/31 06:12:39;;;;;;;4.80;2.98;;;;;;;;;;1758608;80;21542;-73
2022/07/31 06:15:07;;;;;;;11.03;3.20;;;;;;;;;;1742496;80;21027;-72
2022/07/31 06:17:39;;;;;;;7.37;3.30;;;;;;;;;;1728561;82;21028;-73
2022/07/31 06:20:08;;;;;;;6.92;3.70;;;;;;;;;;1696528;83;21146;-73
2022/07/31 06:22:35;;;;;;;8.25;3.35;;;;;;;;;;1759507;80;21059;-73
2022/07/31 06:25:03;;;;;;;8.20;3.33;;;;;;;;;;1764085;80;21562;-73
2022/07/31 06:27:30;;;;;;;4.85;3.00;;;;;;;;;;1761741;80;21494;-72
2022/07/31 06:29:57;;;;;;;5.70;3.27;;;;;;;;;;1760849;80;21106;-73
2022/07/31 06:32:24;;;;;;;10.35;3.60;;;;;;;;;;1754205;80;20999;-72
2022/07/31 06:34:51;;;;;;;5.90;3.65;;;;;;;;;;1754464;80;21524;-72
2022/07/31 06:37:18;;;;;;;5.62;3.30;;;;;;;;;;1757165;80;21476;-72
2022/07/31 06:39:46;;;;;;;7.03;3.72;;;;;;;;;;1750776;80;21031;-73
2022/07/31 06:42:27;;;;;;;6.30;3.25;;;;;;;;;;1758591;81;21527;-74
2022/07/31 06:45:09;;;;;;;8.40;3.75;;;;;;;;;;1775292;81;21067;-72
2022/07/31 06:47:38;;;;;;;7.62;4.97;;;;;;;;;;1767594;80;21027;-72
2022/07/31 06:50:08;;;;;;;5.72;3.70;;;;;;;;;;1715009;80;21070;-72
2022/07/31 06:52:39;;;;;;;7.53;3.58;;;;;;;;;;1759771;80;20992;-73
2022/07/31 06:55:07;;;;;;;5.95;3.00;;;;;;;;;;1773009;80;21136;-71
2022/07/31 06:57:34;;;;;;;8.73;3.12;;;;;;;;;;1753042;80;21563;-72
2022/07/31 07:00:01;;;;;;;7.97;3.20;;;;;;;;;;1750614;80;21078;-72
2022/07/31 07:02:29;;;;;;;7.05;3.33;;;;;;;;;;1754341;80;21035;-73
2022/07/31 07:04:56;;;;;;;6.05;3.75;;;;;;;;;;1775718;81;21016;-72
2022/07/31 07:07:23;;;;;;;6.50;3.20;;;;;;;;;;1774372;80;21580;-73
2022/07/31 07:09:50;;;;;;;7.12;2.60;;;;;;;;;;1763751;80;21044;-73
2022/07/31 07:12:19;;;;;;;5.20;2.30;;;;;;;;;;1748642;80;21519;-73
2022/07/31 07:14:46;;;;;;;3.67;2.05;;;;;;;;;;1770306;80;21484;-73
2022/07/31 07:17:13;;;;;;;6.00;1.90;;;;;;;;;;1762026;80;21523;-72
2022/07/31 07:19:40;;;;;;;4.20;2.17;;;;;;;;;;1771468;80;21593;-72
2022/07/31 07:22:08;;;;;;;8.20;2.70;;;;;;;;;;1764245;80;21550;-72
2022/07/31 07:24:35;;;;;;;5.70;2.98;;;;;;;;;;1776243;80;21098;-73
2022/07/31 07:27:06;;;;;;;4.17;2.30;;;;;;;;;;1773492;80;21031;-73
2022/07/31 07:29:33;;;;;;;4.50;2.00;;;;;;;;;;1754104;80;21058;-73
2022/07/31 07:32:01;;;;;;;4.85;1.82;;;;;;;;;;1753373;80;21007;-72
2022/07/31 07:34:27;;;;;;;4.78;1.77;;;;;;;;;;1757041;80;21031;-73
2022/07/31 07:36:54;;;;;;;7.37;2.22;;;;;;;;;;1746851;80;21152;-73
2022/07/31 07:39:23;;;;;;;6.65;2.10;;;;;;;;;;1714710;82;21015;-73
2022/07/31 07:41:50;;;;;;;3.72;2.05;;;;;;;;;;1763412;80;21652;-73
2022/07/31 07:44:17;;;;;;;4.10;1.80;;;;;;;;;;1753033;80;21520;-72
2022/07/31 07:46:45;;;;;;;8.48;2.27;;;;;;;;;;1765352;80;21019;-72
2022/07/31 07:49:13;;;;;;;3.35;2.10;;;;;;;;;;1772562;80;21039;-72
2022/07/31 07:51:45;;;;;;;5.20;1.90;;;;;;;;;;1773284;80;21573;-73
2022/07/31 07:54:17;;;;;;;4.37;1.80;;;;;;;;;;1757594;80;21078;-72
2022/07/31 07:56:45;;;;;;;5.53;2.05;;;;;;;;;;1763115;80;21537;-73
2022/07/31 07:59:30;;;;;;;4.45;2.20;;;;;;;;;;1758905;81;21004;-72
2022/07/31 08:02:12;;;;;;;6.47;2.00;;;;;;;;;;1756765;81;21103;-73
2022/07/31 08:04:39;;;;;;;2.75;1.80;;;;;;;;;;1749185;80;21019;-72
2022/07/31 08:07:06;;;;;;;7.12;1.90;;;;;;;;;;1774610;80;21035;-73
2022/07/31 08:09:36;;;;;;;5.50;1.80;;;;;;;;;;1760280;80;21050;-72
2022/07/31 08:12:22;;;;;;;4.28;2.22;;;;;;;;;;1727856;81;21076;-73
2022/07/31 08:15:07;;;;;;;5.05;2.20;;;;;;;;;;1765436;80;21038;-72
2022/07/31 08:17:38;;;;;;;4.55;1.82;;;;;;;;;;1764806;80;21093;-72
2022/07/31 08:20:07;;;;;;;5.72;1.90;;;;;;;;;;1752894;80;21070;-72
2022/07/31 08:22:34;;;;;;;3.62;2.00;;;;;;;;;;1757921;80;21027;-72
2022/07/31 08:25:01;;;;;;;3.90;2.00;;;;;;;;;;1757282;80;21133;-72
2022/07/31 08:27:29;;;;;;;3.75;2.00;;;;;;;;;;1759873;80;21055;-73
2022/07/31 08:29:59;;;;;;;3.98;2.00;;;;;;;;;;1762698;80;21039;-71
2022/07/31 08:32:26;;;;;;;6.97;2.70;;;;;;;;;;1753222;80;20992;-73
2022/07/31 08:34:56;;;;;;;8.35;2.45;;;;;;;;;;1688906;83;21015;-72
2022/07/31 08:37:22;;;;;;;6.25;2.42;;;;;;;;;;1732409;81;20992;-72
2022/07/31 08:39:50;;;;;;;3.05;1.98;;;;;;;;;;1719463;82;21039;-72
2022/07/31 08:42:17;;;;;;;4.10;2.08;;;;;;;;;;1714820;82;21015;-72
2022/07/31 08:44:45;;;;;;;5.75;2.08;;;;;;;;;;1729571;82;21019;-73
2022/07/31 08:47:15;;;;;;;4.50;1.90;;;;;;;;;;1721566;82;21032;-72
2022/07/31 08:49:44;;;;;;;6.35;1.92;;;;;;;;;;1712928;83;21090;-72
2022/07/31 08:52:18;;;;;;;2.52;1.80;;;;;;;;;;1733024;82;21046;-73
2022/07/31 08:54:57;;;;;;;15.23;2.90;;;;;;;;;;1723676;81;21022;-72
2022/07/31 08:57:25;;;;;;;8.13;2.12;;;;;;;;;;1730004;82;21038;-72
2022/07/31 08:59:53;;;;;;;2.77;2.05;;;;;;;;;;1682804;84;21050;-71
2022/07/31 09:02:20;;;;;;;5.08;1.90;;;;;;;;;;1687609;83;21051;-71
2022/07/31 09:05:04;;;;;;;4.92;1.90;;;;;;;;;;1703206;83;21083;-73
2022/07/31 09:07:32;;;;;;;3.45;1.77;;;;;;;;;;1693895;83;21035;-72
2022/07/31 09:09:59;;;;;;;5.17;1.98;;;;;;;;;;1732996;81;21556;-72
2022/07/31 09:12:32;;;;;;;3.00;2.02;;;;;;;;;;1721283;82;21054;-72
2022/07/31 09:15:21;;;;;;;5.28;2.35;;;;;;;;;;1707903;83;21046;-72
2022/07/31 09:17:48;;;;;;;5.95;2.00;;;;;;;;;;1703734;82;21099;-72
2022/07/31 09:20:19;;;;;;;4.45;1.62;;;;;;;;;;1730858;82;21018;-72
2022/07/31 09:22:47;;;;;;;5.37;1.70;;;;;;;;;;1734072;81;21012;-72
2022/07/31 09:25:17;;;;;;;5.17;1.90;;;;;;;;;;1718813;80;21532;-72
2022/07/31 09:27:46;;;;;;;4.22;1.82;;;;;;;;;;1701287;82;21043;-72
2022/07/31 09:30:14;;;;;;;3.25;1.77;;;;;;;;;;1739000;81;21077;-72
2022/07/31 09:33:16;;;;;;;4.10;2.00;;;;;;;;;;1732098;81;21198;-72
2022/07/31 09:36:01;;;;;;;4.28;1.80;;;;;;;;;;1716755;82;21019;-72
2022/07/31 09:38:35;;;;;;;4.33;1.60;;;;;;;;;;1744004;81;21530;-72
2022/07/31 09:41:21;;;;;;;4.35;1.50;;;;;;;;;;1753343;80;21513;-72
2022/07/31 09:44:04;;;;;;;3.02;1.87;;;;;;;;;;1744060;81;21042;-72
2022/07/31 09:46:45;;;;;;;3.33;1.90;;;;;;;;;;1738239;80;21017;-72
2022/07/31 09:49:13;;;;;;;5.12;2.30;;;;;;;;;;1716430;80;21039;-72
2022/07/31 09:51:42;;;;;;;7.53;2.08;;;;;;;;;;1730693;80;21527;-72
2022/07/31 09:54:22;;;;;;;5.97;2.20;;;;;;;;;;1736442;81;21025;-72
2022/07/31 09:56:57;;;;;;;4.03;1.85;;;;;;;;;;1728093;83;21001;-72
2022/07/31 09:59:25;;;;;;;8.83;2.25;;;;;;;;;;1722876;81;21515;-72
2022/07/31 10:01:53;;;;;;;6.28;2.87;;;;;;;;;;1718916;83;21488;-72
2022/07/31 10:04:22;;;;;;;5.65;3.00;;;;;;;;;;1727118;81;21019;-72
2022/07/31 10:06:51;;;;;;;9.45;3.47;;;;;;;;;;1704349;82;21087;-72
2022/07/31 10:09:20;;;;;;;6.00;3.00;;;;;;;;;;1728801;81;21051;-72
2022/07/31 10:11:55;;;;;;;5.42;2.95;;;;;;;;;;1714085;82;21181;-72
2022/07/31 10:14:25;;;;;;;4.10;2.83;;;;;;;;;;1732082;81;21051;-72
2022/07/31 10:16:55;;;;;;;7.95;2.72;;;;;;;;;;1735566;82;21039;-73
2022/07/31 10:19:43;;;;;;;4.05;2.72;;;;;;;;;;1699903;82;21043;-72
2022/07/31 10:22:34;;;;;;;11.05;2.80;;;;;;;;;;1739789;82;21067;-73
2022/07/31 10:25:02;;;;;;;7.65;2.90;;;;;;;;;;1735447;81;21106;-72
2022/07/31 10:27:29;;;;;;;5.62;2.67;;;;;;;;;;1730535;82;20996;-71
2022/07/31 10:30:00;;;;;;;7.35;3.52;;;;;;;;;;1730458;81;21074;-72
2022/07/31 10:32:27;;;;;;;5.50;3.60;;;;;;;;;;1715452;82;21051;-71
2022/07/31 10:35:13;;;;;;;9.93;4.10;;;;;;;;;;1711034;82;21488;-72
2022/07/31 10:38:18;;;;;;;5.78;3.77;;;;;;;;;;1723169;81;21074;-71
2022/07/31 10:41:18;;;;;;;5.22;2.75;;;;;;;;;;1744665;81;21075;-71
2022/07/31 10:43:47;;;;;;;2.98;2.58;;;;;;;;;;1715559;82;21050;-72
2022/07/31 10:46:30;;;;;;;4.97;2.70;;;;;;;;;;1720388;81;21039;-72
2022/07/31 10:49:15;;;;;;;4.70;2.70;;;;;;;;;;1727309;82;21051;-72
2022/07/31 10:52:03;;;;;;;6.62;2.75;;;;;;;;;;1716586;81;21535;-72
2022/07/31 10:54:42;;;;;;;6.33;2.98;;;;;;;;;;1742310;81;21551;-71
2022/07/31 10:57:29;;;;;;;7.45;2.67;;;;;;;;;;1688711;84;21024;-72
2022/07/31 11:00:19;;;;;;;6.67;2.52;;;;;;;;;;1730695;81;21086;-72
2022/07/31 11:03:16;;;;;;;7.20;2.37;;;;;;;;;;1738816;82;20991;-71
2022/07/31 11:05:58;;;;;;;4.92;2.83;;;;;;;;;;1703695;82;21027;-72
2022/07/31 11:08:44;;;;;;;8.55;2.40;;;;;;;;;;1736819;81;21019;-72
2022/07/31 11:11:13;;;;;;;7.62;2.15;;;;;;;;;;1725916;82;21047;-71
2022/07/31 11:13:50;;;;;;;5.75;2.50;;;;;;;;;;1714211;82;21063;-71
2022/07/31 11:16:20;;;;;;;5.78;2.58;;;;;;;;;;1709010;82;21050;-72
2022/07/31 11:19:05;;;;;;;9.93;2.90;;;;;;;;;;1726581;82;21527;-72
2022/07/31 11:21:34;;;;;;;6.40;2.52;;;;;;;;;;1733786;81;21530;-72
2022/07/31 11:24:03;;;;;;;4.05;2.58;;;;;;;;;;1723238;81;20979;-71
2022/07/31 11:26:30;;;;;;;6.45;2.65;;;;;;;;;;1721270;81;21571;-71
2022/07/31 11:28:58;;;;;;;3.55;2.17;;;;;;;;;;1727003;82;21067;-71
2022/07/31 11:31:27;;;;;;;5.05;2.37;;;;;;;;;;1722091;82;21039;-72
2022/07/31 11:33:54;;;;;;;6.53;2.30;;;;;;;;;;1718415;82;21106;-70
2022/07/31 11:36:27;;;;;;;5.70;2.62;;;;;;;;;;1731005;82;21039;-72
2022/07/31 11:38:55;;;;;;;5.45;2.22;;;;;;;;;;1709457;82;21120;-71
2022/07/31 11:41:28;;;;;;;6.12;2.75;;;;;;;;;;1710074;82;21027;-71
2022/07/31 11:43:56;;;;;;;4.37;2.50;;;;;;;;;;1734230;81;21024;-72
2022/07/31 11:46:28;;;;;;;4.22;2.70;;;;;;;;;;1730039;81;21045;-72
2022/07/31 11:48:55;;;;;;;6.30;2.40;;;;;;;;;;1725080;82;21071;-71
2022/07/31 11:51:23;;;;;;;4.20;2.47;;;;;;;;;;1735349;81;21028;-72
2022/07/31 11:53:51;;;;;;;4.40;2.25;;;;;;;;;;1712850;82;21093;-71
2022/07/31 11:56:18;;;;;;;5.20;2.30;;;;;;;;;;1725423;82;21003;-71
2022/07/31 11:58:54;;;;;;;7.50;2.20;;;;;;;;;;1725826;81;21035;-71
2022/07/31 12:01:28;;;;;;;5.83;2.30;;;;;;;;;;1719187;81;21042;-72
2022/07/31 12:03:58;;;;;;;6.30;2.52;;;;;;;;;;1699915;82;21030;-71
2022/07/31 12:06:27;;;;;;;4.80;2.58;;;;;;;;;;1733072;81;21085;-71
2022/07/31 12:08:55;;;;;;;5.12;2.20;;;;;;;;;;1742223;82;21035;-72
2022/07/31 12:11:22;;;;;;;4.78;2.70;;;;;;;;;;1724164;82;21016;-71
2022/07/31 12:13:49;;;;;;;5.20;2.55;;;;;;;;;;1726467;82;21123;-72
2022/07/31 12:16:20;;;;;;;5.22;2.58;;;;;;;;;;1726932;81;21071;-71
2022/07/31 12:18:57;;;;;;;6.97;2.27;;;;;;;;;;1737666;81;21532;-71
2022/07/31 12:21:22;;;;;;;6.33;2.58;;;;;;;;;;1703079;82;21045;-71
2022/07/31 12:23:52;;;;;;;5.12;2.20;;;;;;;;;;1708106;82;21051;-72
2022/07/31 12:26:27;;;;;;;5.50;2.50;;;;;;;;;;1745141;82;21082;-71
2022/07/31 12:29:03;;;;;;;4.05;2.50;;;;;;;;;;1725653;81;21086;-72
2022/07/31 12:31:48;;;;;;;4.35;2.60;;;;;;;;;;1720902;82;21119;-71
2022/07/31 12:34:39;;;;;;;9.65;2.70;;;;;;;;;;1744709;82;21126;-71
2022/07/31 12:37:15;;;;;;;5.30;2.60;;;;;;;;;;1727936;82;21059;-71
2022/07/31 12:39:51;;;;;;;5.00;3.22;;;;;;;;;;1689702;81;20999;-70
2022/07/31 12:42:27;;;;;;;3.72;1.95;;;;;;;;;;1716763;82;21090;-71
2022/07/31 12:44:56;;;;;;;3.80;2.20;;;;;;;;;;1726637;82;21543;-70
2022/07/31 12:47:28;;;;;;;6.67;2.50;;;;;;;;;;1722018;82;21027;-73
2022/07/31 12:49:56;;;;;;;5.30;2.20;;;;;;;;;;1723480;82;21095;-71
2022/07/31 12:52:24;;;;;;;3.50;1.92;;;;;;;;;;1738458;81;22203;-72
2022/07/31 12:54:51;;;;;;;3.70;1.82;;;;;;;;;;1731604;81;21573;-72
2022/07/31 12:57:18;;;;;;;4.65;2.00;;;;;;;;;;1715618;82;21054;-71
2022/07/31 12:59:44;;;;;;;2.65;1.82;;;;;;;;;;1728578;82;21527;-70
2022/07/31 13:02:12;;;;;;;5.20;2.22;;;;;;;;;;1709355;82;21039;-72
2022/07/31 13:04:39;;;;;;;5.00;2.00;;;;;;;;;;1731152;81;21538;-72
2022/07/31 13:07:07;;;;;;;6.75;2.90;;;;;;;;;;1720452;81;21055;-71
2022/07/31 13:09:34;;;;;;;6.17;2.45;;;;;;;;;;1740160;82;21015;-72
2022/07/31 13:12:01;;;;;;;7.03;2.70;;;;;;;;;;1719814;82;21059;-72
2022/07/31 13:14:28;;;;;;;5.87;2.17;;;;;;;;;;1736620;81;21032;-72
2022/07/31 13:16:54;;;;;;;3.80;2.50;;;;;;;;;;1732350;82;21044;-72
2022/07/31 13:19:21;;;;;;;6.35;2.10;;;;;;;;;;1725045;81;21078;-72
2022/07/31 13:21:48;;;;;;;7.83;2.00;;;;;;;;;;1726152;82;21341;-71
2022/07/31 13:24:17;;;;;;;6.65;2.25;;;;;;;;;;1721615;81;21054;-72
2022/07/31 13:26:44;;;;;;;6.83;2.40;;;;;;;;;;1717272;82;21047;-72
2022/07/31 13:29:11;;;;;;;4.15;2.25;;;;;;;;;;1737981;82;21060;-72
2022/07/31 13:31:38;;;;;;;2.92;2.02;;;;;;;;;;1721608;81;21063;-72
2022/07/31 13:34:05;;;;;;;5.92;2.60;;;;;;;;;;1680029;83;21072;-72
2022/07/31 13:36:33;;;;;;;3.95;2.42;;;;;;;;;;1691132;83;21022;-72
2022/07/31 13:39:00;;;;;;;6.65;2.60;;;;;;;;;;1681466;83;21044;-72
2022/07/31 13:41:27;;;;;;;4.33;2.10;;;;;;;;;;1684048;83;21084;-73
2022/07/31 13:43:54;;;;;;;4.45;2.40;;;;;;;;;;1698508;82;21048;-72
2022/07/31 13:46:23;;;;;;;6.35;2.08;;;;;;;;;;1686944;83;21005;-72
2022/07/31 13:48:51;;;;;;;6.35;2.00;;;;;;;;;;1696867;83;21071;-72
2022/07/31 13:51:18;;;;;;;5.53;2.50;;;;;;;;;;1701003;83;21045;-72
2022/07/31 13:53:46;;;;;;;6.95;2.27;;;;;;;;;;1692787;82;21073;-72
2022/07/31 13:56:13;;;;;;;3.35;2.30;;;;;;;;;;1686849;82;21540;-72
2022/07/31 13:58:39;;;;;;;6.58;2.20;;;;;;;;;;1681021;84;21115;-73
2022/07/31 14:01:06;;;;;;;5.17;2.15;;;;;;;;;;1701440;82;21198;-73
2022/07/31 14:03:35;;;;;;;4.95;2.50;;;;;;;;;;1682014;83;21032;-71
2022/07/31 14:06:02;;;;;;;5.60;2.20;;;;;;;;;;1683344;83;21096;-73
2022/07/31 14:08:30;;;;;;;5.65;2.30;;;;;;;;;;1737781;81;21074;-72
2022/07/31 14:10:58;;;;;;;5.30;2.67;;;;;;;;;;1739724;82;21079;-72
2022/07/31 14:13:25;;;;;;;6.05;2.40;;;;;;;;;;1718138;82;21077;-71
2022/07/31 14:15:52;;;;;;;6.85;2.33;;;;;;;;;;1740202;82;21009;-72
2022/07/31 14:18:19;;;;;;;3.72;2.10;;;;;;;;;;1738509;81;21113;-72
2022/07/31 14:20:46;;;;;;;4.55;2.00;;;;;;;;;;1710412;82;21110;-71
2022/07/31 14:23:13;;;;;;;9.88;2.30;;;;;;;;;;1719299;81;21093;-71
2022/07/31 14:25:40;;;;;;;5.28;2.33;;;;;;;;;;1726535;81;21082;-69
2022/07/31 14:28:08;;;;;;;2.83;2.20;;;;;;;;;;1697353;82;21093;-69
2022/07/31 14:30:36;;;;;;;3.55;2.40;;;;;;;;;;1725314;82;21094;-69
2022/07/31 14:33:03;;;;;;;7.65;2.40;;;;;;;;;;1732514;81;21546;-69
2022/07/31 14:35:32;;;;;;;5.62;2.42;;;;;;;;;;1726818;82;21000;-69
2022/07/31 14:37:59;;;;;;;5.45;2.50;;;;;;;;;;1732694;81;21028;-69
2022/07/31 14:40:29;;;;;;;6.58;2.22;;;;;;;;;;1735011;81;21090;-68
2022/07/31 14:42:56;;;;;;;5.75;2.20;;;;;;;;;;1745421;82;21563;-70
2022/07/31 14:45:23;;;;;;;3.98;2.10;;;;;;;;;;1725277;82;21149;-69
2022/07/31 14:47:49;;;;;;;5.75;2.50;;;;;;;;;;1712001;82;21555;-69
2022/07/31 14:50:16;;;;;;;10.78;2.30;;;;;;;;;;1736444;81;21040;-69
2022/07/31 14:52:43;;;;;;;6.20;2.15;;;;;;;;;;1722903;82;21047;-69
2022/07/31 14:55:10;;;;;;;8.30;2.10;;;;;;;;;;1730914;81;21060;-69
2022/07/31 14:57:37;;;;;;;4.47;2.10;;;;;;;;;;1730826;81;21051;-69